Time;durP1;ratioP1;P1;durP2;ratioP2;P2;SDS_P1;SDS_P2;PMS_P1;PMS_P2;Temp;Humidity;BMP_temperature;BMP_pressure;BME280_temperature;BME280_humidity;BME280_pressure;Samples;Min_cycle;Max_cycle;Signal;HPM_P1;HPM_P2
2023/09/01 00:00:22;;;;;;;2.20;2.10;;;19.50;52.40;;;;;;20735;6834;120192;-69
2023/09/01 00:02:47;;;;;;;2.37;2.17;;;19.50;52.60;;;;;;20741;6834;119336;-69
2023/09/01 00:05:13;;;;;;;3.43;2.17;;;19.30;53.00;;;;;;20738;6834;119678;-69
2023/09/01 00:07:39;;;;;;;3.27;2.23;;;19.20;53.40;;;;;;20763;6818;119800;-70
2023/09/01 00:10:05;;;;;;;3.40;2.60;;;19.00;53.60;;;;;;20587;6810;277202;-69
2023/09/01 00:12:30;;;;;;;2.97;2.00;;;19.20;53.20;;;;;;20810;6810;119239;-68
2023/09/01 00:14:55;;;;;;;2.50;2.30;;;19.30;53.30;;;;;;20793;6810;119746;-69
2023/09/01 00:17:21;;;;;;;4.10;2.40;;;19.20;53.60;;;;;;20565;6821;278054;-69
2023/09/01 00:19:47;;;;;;;2.65;2.45;;;19.40;52.70;;;;;;20538;6824;307762;-68
2023/09/01 00:22:12;;;;;;;1.90;1.80;;;19.70;51.90;;;;;;20788;6811;117568;-70
2023/09/01 00:24:39;;;;;;;2.97;2.23;;;19.60;52.00;;;;;;20594;6811;284878;-69
2023/09/01 00:27:04;;;;;;;4.15;2.75;;;19.80;51.40;;;;;;20567;6819;312057;-69
2023/09/01 00:29:34;;;;;;;2.90;2.50;;;20.00;50.70;;;;;;20744;6827;130456;-69
2023/09/01 00:31:59;;;;;;;2.80;2.30;;;19.90;51.10;;;;;;20542;6822;299819;-68
2023/09/01 00:34:25;;;;;;;2.97;2.47;;;20.20;50.30;;;;;;20556;6822;308746;-68
2023/09/01 00:36:51;;;;;;;2.73;2.13;;;20.10;50.10;;;;;;20750;6830;119296;-69
2023/09/01 00:39:17;;;;;;;2.63;2.33;;;19.70;51.20;;;;;;20746;6830;120289;-69
2023/09/01 00:41:43;;;;;;;3.47;2.20;;;19.70;51.20;;;;;;20520;6830;308579;-69
2023/09/01 00:44:10;;;;;;;2.60;2.40;;;19.80;50.80;;;;;;20534;6830;308503;-70
2023/09/01 00:46:34;;;;;;;2.23;2.03;;;20.10;50.30;;;;;;20526;6830;312990;-69
2023/09/01 00:49:00;;;;;;;3.23;2.20;;;20.40;49.40;;;;;;20540;6825;307555;-69
2023/09/01 00:51:25;;;;;;;2.80;1.83;;;20.40;49.40;;;;;;20763;6825;118129;-69
2023/09/01 00:53:51;;;;;;;2.43;2.23;;;20.20;50.10;;;;;;20744;6823;119523;-69
2023/09/01 00:56:17;;;;;;;2.42;2.08;;;19.80;50.70;;;;;;20554;6823;278577;-69
2023/09/01 00:58:42;;;;;;;2.30;2.10;;;19.90;50.20;;;;;;20746;6830;119342;-69
2023/09/01 01:01:08;;;;;;;2.97;2.12;;;19.80;50.70;;;;;;20549;6830;278975;-69
2023/09/01 01:03:33;;;;;;;2.45;2.25;;;19.80;50.60;;;;;;20522;6830;308427;-69
2023/09/01 01:06:09;;;;;;;3.77;1.93;;;20.10;50.30;;;;;;20759;6830;117794;-69
2023/09/01 01:08:42;;;;;;;3.47;2.10;;;19.90;50.60;;;;;;20757;6830;117678;-69
2023/09/01 01:11:27;;;;;;;3.70;2.20;;;19.70;51.30;;;;;;20518;6830;337018;-69
2023/09/01 01:13:53;;;;;;;3.07;1.97;;;19.60;50.80;;;;;;20391;6830;124045;-70
2023/09/01 01:16:19;;;;;;;3.87;2.10;;;19.60;51.20;;;;;;20522;6830;312653;-70
2023/09/01 01:18:44;;;;;;;5.40;2.28;;;19.70;50.90;;;;;;20750;6830;120180;-71
2023/09/01 01:21:16;;;;;;;3.23;2.00;;;19.60;51.30;;;;;;20747;6830;117638;-70
2023/09/01 01:23:42;;;;;;;2.93;2.27;;;19.40;51.80;;;;;;20507;6830;279342;-71
2023/09/01 01:26:08;;;;;;;3.10;2.37;;;19.60;51.30;;;;;;20536;6830;313607;-70
2023/09/01 01:28:33;;;;;;;2.63;2.20;;;19.80;50.90;;;;;;20722;6830;119273;-71
2023/09/01 01:30:58;;;;;;;2.27;2.07;;;19.70;51.20;;;;;;20550;6828;295633;-69
2023/09/01 01:33:34;;;;;;;3.23;2.03;;;19.80;51.00;;;;;;20749;6829;117120;-70
2023/09/01 01:36:12;;;;;;;2.30;2.10;;;19.70;51.40;;;;;;20546;6830;277645;-69
2023/09/01 01:38:38;;;;;;;2.53;2.22;;;19.90;50.40;;;;;;20541;6830;307687;-69
2023/09/01 01:41:07;;;;;;;2.27;2.00;;;19.90;50.40;;;;;;20748;6830;119301;-69
2023/09/01 01:43:33;;;;;;;3.87;2.50;;;19.80;50.90;;;;;;20506;6822;335623;-70
2023/09/01 01:45:58;;;;;;;2.67;1.83;;;19.90;51.50;;;;;;20766;6826;117247;-69
2023/09/01 01:48:24;;;;;;;1.95;1.85;;;19.80;51.30;;;;;;20554;6826;277644;-71
2023/09/01 01:50:54;;;;;;;2.80;2.50;;;19.80;51.00;;;;;;20561;6823;307010;-70
2023/09/01 01:53:17;;;;;;;2.53;1.93;;;19.80;51.00;;;;;;20773;6823;117064;-70
2023/09/01 01:55:42;;;;;;;3.37;1.97;;;19.80;51.00;;;;;;20555;6823;308310;-69
2023/09/01 01:58:08;;;;;;;3.83;2.30;;;19.90;50.80;;;;;;20577;6823;306703;-70
2023/09/01 02:00:34;;;;;;;2.60;2.28;;;20.00;50.40;;;;;;20569;6823;303104;-70
2023/09/01 02:02:59;;;;;;;2.10;1.80;;;20.20;50.10;;;;;;20784;6823;122839;-68
2023/09/01 02:05:26;;;;;;;3.47;2.10;;;20.00;50.60;;;;;;20566;6823;311125;-70
2023/09/01 02:07:51;;;;;;;1.93;1.83;;;19.90;50.50;;;;;;20765;6823;119910;-70
2023/09/01 02:10:17;;;;;;;2.37;2.17;;;19.80;51.00;;;;;;20573;6823;278098;-70
2023/09/01 02:12:42;;;;;;;2.40;2.20;;;19.80;50.90;;;;;;20566;6823;307387;-70
2023/09/01 02:15:08;;;;;;;1.97;1.77;;;20.00;50.80;;;;;;20778;6823;117095;-68
2023/09/01 02:17:33;;;;;;;3.10;2.57;;;19.90;51.20;;;;;;20754;6823;120233;-70
2023/09/01 02:19:59;;;;;;;2.20;2.00;;;19.60;51.80;;;;;;20775;6823;117310;-70
2023/09/01 02:22:24;;;;;;;2.50;1.70;;;19.30;52.30;;;;;;20778;6823;117058;-72
2023/09/01 02:24:50;;;;;;;2.37;2.10;;;19.10;52.80;;;;;;20563;6823;277970;-69
2023/09/01 02:27:16;;;;;;;1.83;1.60;;;19.20;52.70;;;;;;20785;6823;120169;-70
2023/09/01 02:29:41;;;;;;;2.20;1.63;;;19.20;52.80;;;;;;20761;6823;119821;-70
2023/09/01 02:32:07;;;;;;;3.50;2.10;;;19.00;53.10;;;;;;20568;6823;278372;-70
2023/09/01 02:34:32;;;;;;;2.80;2.10;;;19.20;52.90;;;;;;20556;6823;317243;-69
2023/09/01 02:36:59;;;;;;;2.30;1.90;;;19.40;52.60;;;;;;20785;6823;117593;-69
2023/09/01 02:39:24;;;;;;;2.07;1.73;;;19.40;52.60;;;;;;20783;6823;117120;-70
2023/09/01 02:41:50;;;;;;;4.60;1.90;;;19.20;53.10;;;;;;20761;6821;120499;-70
2023/09/01 02:44:16;;;;;;;2.28;2.08;;;19.20;53.90;;;;;;20580;6822;306886;-70
2023/09/01 02:46:42;;;;;;;3.50;2.00;;;19.10;53.30;;;;;;20566;6822;307462;-70
2023/09/01 02:49:07;;;;;;;4.63;2.03;;;19.50;52.70;;;;;;20776;6822;116965;-69
2023/09/01 02:51:33;;;;;;;2.20;1.83;;;19.50;52.80;;;;;;20752;6822;117159;-70
2023/09/01 02:53:58;;;;;;;2.62;1.90;;;19.30;53.20;;;;;;20788;6822;119910;-70
2023/09/01 02:56:24;;;;;;;2.10;1.90;;;19.10;53.60;;;;;;20779;6822;119604;-70
2023/09/01 02:58:50;;;;;;;3.40;2.10;;;19.10;53.60;;;;;;20570;6822;280277;-69
2023/09/01 03:01:17;;;;;;;1.63;1.53;;;19.10;53.60;;;;;;20779;6822;117065;-69
2023/09/01 03:03:42;;;;;;;2.50;1.87;;;19.20;53.70;;;;;;20542;6823;308007;-70
2023/09/01 03:06:08;;;;;;;3.10;2.10;;;19.30;53.40;;;;;;20565;6823;277242;-69
2023/09/01 03:08:32;;;;;;;2.43;2.10;;;19.60;52.90;;;;;;20566;6823;307298;-69
2023/09/01 03:10:58;;;;;;;3.70;2.10;;;19.90;52.40;;;;;;20568;6823;307560;-70
2023/09/01 03:13:23;;;;;;;2.00;1.90;;;20.10;52.10;;;;;;20570;6823;293720;-70
2023/09/01 03:15:49;;;;;;;2.20;2.10;;;20.20;51.80;;;;;;20689;6823;119397;-70
2023/09/01 03:18:35;;;;;;;2.62;1.67;;;19.90;52.20;;;;;;20765;6823;117133;-70
2023/09/01 03:21:10;;;;;;;2.07;1.70;;;19.50;52.80;;;;;;20939;6710;119885;-69
2023/09/01 03:23:47;;;;;;;4.47;2.50;;;18.90;54.20;;;;;;20922;6710;129029;-69
2023/09/01 03:26:23;;;;;;;2.10;1.93;;;18.90;54.20;;;;;;20824;6711;120112;-70
2023/09/01 03:28:58;;;;;;;2.30;2.10;;;18.90;54.50;;;;;;20670;6735;305120;-70
2023/09/01 03:31:34;;;;;;;2.37;1.90;;;18.90;54.50;;;;;;20864;6735;119120;-70
2023/09/01 03:34:10;;;;;;;2.07;1.77;;;19.00;54.60;;;;;;20861;6743;117131;-69
2023/09/01 03:36:45;;;;;;;2.77;1.97;;;18.80;54.80;;;;;;20475;6765;311785;-70
2023/09/01 03:39:21;;;;;;;2.08;1.90;;;19.00;54.70;;;;;;20666;6738;317620;-70
2023/09/01 03:41:56;;;;;;;2.80;1.80;;;19.40;54.20;;;;;;20779;6738;117364;-71
2023/09/01 03:44:33;;;;;;;1.70;1.60;;;19.10;55.30;;;;;;20909;6721;117160;-70
2023/09/01 03:47:08;;;;;;;3.33;2.00;;;19.10;54.70;;;;;;20504;6709;308374;-70
2023/09/01 03:49:44;;;;;;;3.30;1.77;;;19.20;54.40;;;;;;20681;6714;285369;-70
2023/09/01 03:52:20;;;;;;;2.33;1.90;;;19.60;54.10;;;;;;20763;6706;280024;-70
2023/09/01 03:54:55;;;;;;;1.80;1.70;;;19.80;53.50;;;;;;20894;6715;116776;-70
2023/09/01 03:57:31;;;;;;;1.80;1.60;;;19.60;53.70;;;;;;20694;6721;304580;-70
2023/09/01 04:00:10;;;;;;;2.77;1.70;;;19.70;53.80;;;;;;20846;6751;117055;-71
2023/09/01 04:02:42;;;;;;;2.00;1.70;;;19.50;54.10;;;;;;20720;6723;304862;-70
2023/09/01 04:05:18;;;;;;;1.70;1.60;;;19.60;54.10;;;;;;20877;6740;116997;-72
2023/09/01 04:07:54;;;;;;;1.92;1.67;;;19.50;54.90;;;;;;20677;6725;277366;-72
2023/09/01 04:10:30;;;;;;;2.20;2.00;;;19.50;54.30;;;;;;20687;6731;306121;-72
2023/09/01 04:13:05;;;;;;;1.40;1.30;;;19.80;54.00;;;;;;20753;6760;120777;-71
2023/09/01 04:15:42;;;;;;;1.97;1.77;;;19.60;54.20;;;;;;20599;6725;311854;-75
2023/09/01 04:18:17;;;;;;;1.60;1.50;;;19.60;54.80;;;;;;20879;6730;117318;-76
2023/09/01 04:20:53;;;;;;;1.97;1.77;;;19.40;54.40;;;;;;20623;6739;304692;-72
2023/09/01 04:23:31;;;;;;;2.63;1.77;;;19.80;54.20;;;;;;20653;6739;306059;-74
2023/09/01 04:26:05;;;;;;;2.30;1.67;;;19.70;54.10;;;;;;20756;6745;117860;-71
2023/09/01 04:28:40;;;;;;;2.80;1.70;;;19.60;54.40;;;;;;20807;6760;117122;-71
2023/09/01 04:31:32;;;;;;;3.13;1.70;;;19.30;55.00;;;;;;20808;6760;119203;-74
2023/09/01 04:34:06;;;;;;;2.00;1.90;;;19.10;55.50;;;;;;20644;6736;276914;-72
2023/09/01 04:36:42;;;;;;;2.28;1.90;;;19.30;55.60;;;;;;20507;6749;309730;-72
2023/09/01 04:39:18;;;;;;;1.40;1.40;;;19.50;54.90;;;;;;20880;6737;117069;-70
2023/09/01 04:41:54;;;;;;;1.20;1.20;;;19.50;54.90;;;;;;20851;6739;117115;-72
2023/09/01 04:44:30;;;;;;;2.67;1.50;;;19.10;55.90;;;;;;20945;6708;116755;-72
2023/09/01 04:47:06;;;;;;;1.37;1.27;;;19.10;55.80;;;;;;20759;6721;117309;-74
2023/09/01 04:49:41;;;;;;;2.80;1.63;;;18.90;56.20;;;;;;20960;6703;117290;-69
2023/09/01 04:52:17;;;;;;;1.70;1.57;;;18.80;56.50;;;;;;20928;6722;121707;-72
2023/09/01 04:54:52;;;;;;;1.92;1.60;;;18.80;56.80;;;;;;20650;6722;305651;-72
2023/09/01 04:57:28;;;;;;;2.30;1.60;;;19.00;56.80;;;;;;20722;6714;276521;-71
2023/09/01 05:00:07;;;;;;;1.90;1.80;;;19.40;56.00;;;;;;20722;6712;280011;-71
2023/09/01 05:02:40;;;;;;;1.83;1.70;;;19.80;55.40;;;;;;20734;6713;277064;-70
2023/09/01 05:05:19;;;;;;;1.40;1.30;;;20.30;54.40;;;;;;20699;6713;306519;-71
2023/09/01 05:07:52;;;;;;;2.00;1.50;;;20.20;54.30;;;;;;20702;6708;281108;-71
2023/09/01 05:10:28;;;;;;;2.03;1.50;;;20.40;54.10;;;;;;20746;6708;335104;-71
2023/09/01 05:13:07;;;;;;;1.43;1.17;;;20.50;53.90;;;;;;20927;6708;117125;-72
2023/09/01 05:15:49;;;;;;;1.80;1.50;;;20.20;54.20;;;;;;20606;6770;282204;-71
2023/09/01 05:18:27;;;;;;;2.62;1.30;;;20.40;54.40;;;;;;20729;6713;338911;-71
2023/09/01 05:21:03;;;;;;;2.07;1.10;;;20.40;54.40;;;;;;20991;6698;116888;-72
2023/09/01 05:23:43;;;;;;;1.77;1.33;;;20.20;54.70;;;;;;20767;6701;340626;-71
2023/09/01 05:26:24;;;;;;;1.50;1.03;;;20.20;54.70;;;;;;20884;6713;67286;-71
2023/09/01 05:28:54;;;;;;;1.23;1.12;;;20.10;55.50;;;;;;20771;6712;303663;-70
2023/09/01 05:31:33;;;;;;;1.47;1.37;;;20.10;55.50;;;;;;20977;6702;117727;-72
2023/09/01 05:34:09;;;;;;;1.80;1.30;;;20.00;55.70;;;;;;20724;6719;310324;-71
2023/09/01 05:36:45;;;;;;;1.40;1.30;;;20.10;56.30;;;;;;20597;6706;308164;-72
2023/09/01 05:39:25;;;;;;;1.50;1.40;;;20.30;56.00;;;;;;20894;6736;117244;-72
2023/09/01 05:42:14;;;;;;;;;;;;;;;;;;;;;
2023/09/01 05:44:42;;;;;;;2.47;1.47;;;19.90;56.60;;;;;;20613;6775;279117;-71
2023/09/01 05:47:18;;;;;;;1.40;1.20;;;20.00;57.30;;;;;;20385;6809;281548;-72
2023/09/01 05:49:54;;;;;;;1.40;1.30;;;20.40;56.90;;;;;;20618;6728;307167;-72
2023/09/01 05:52:30;;;;;;;1.67;1.25;;;20.40;56.90;;;;;;20674;6728;311125;-73
2023/09/01 05:55:07;;;;;;;2.83;1.00;;;20.60;56.60;;;;;;20860;6723;117007;-75
2023/09/01 05:57:43;;;;;;;0.97;0.97;;;20.40;56.80;;;;;;20769;6728;121111;-74
2023/09/01 06:00:18;;;;;;;1.33;1.20;;;20.00;57.20;;;;;;20619;6741;307459;-73
2023/09/01 06:02:54;;;;;;;1.83;1.40;;;20.00;58.00;;;;;;20396;6737;321365;-74
2023/09/01 06:05:32;;;;;;;1.87;1.40;;;20.30;58.10;;;;;;20578;6733;278645;-75
2023/09/01 06:08:07;;;;;;;1.40;1.30;;;20.50;58.00;;;;;;20610;6739;305697;-72
2023/09/01 06:10:45;;;;;;;1.30;1.20;;;20.60;58.00;;;;;;20891;6722;120832;-73
2023/09/01 06:13:20;;;;;;;1.53;1.43;;;20.40;58.10;;;;;;20795;6724;122174;-73
2023/09/01 06:15:59;;;;;;;1.60;1.50;;;19.90;58.60;;;;;;20803;6724;124260;-76
2023/09/01 06:18:32;;;;;;;3.10;1.60;;;19.60;59.30;;;;;;20861;6739;120972;-72
2023/09/01 06:21:10;;;;;;;1.63;1.40;;;19.30;59.80;;;;;;20651;6739;313059;-73
2023/09/01 06:23:44;;;;;;;1.70;1.60;;;19.40;61.30;;;;;;20627;6740;327243;-71
2023/09/01 06:26:18;;;;;;;3.03;1.70;;;19.70;61.50;;;;;;20502;6740;278191;-71
2023/09/01 06:28:54;;;;;;;1.70;1.60;;;19.90;61.30;;;;;;20643;6740;309750;-72
2023/09/01 06:31:31;;;;;;;2.70;1.70;;;20.10;61.00;;;;;;20614;6740;305510;-74
2023/09/01 06:34:10;;;;;;;2.67;1.57;;;20.20;60.80;;;;;;20694;6717;293256;-73
2023/09/01 06:36:42;;;;;;;1.20;1.20;;;20.30;60.80;;;;;;20704;6718;117475;-72
2023/09/01 06:39:19;;;;;;;1.40;1.30;;;20.10;61.00;;;;;;20891;6718;118026;-72
2023/09/01 06:41:55;;;;;;;1.67;1.58;;;19.70;61.50;;;;;;20649;6711;305675;-72
2023/09/01 06:44:31;;;;;;;1.27;1.27;;;19.80;62.60;;;;;;20929;6701;117846;-73
2023/09/01 06:47:09;;;;;;;1.63;1.53;;;19.70;62.60;;;;;;20692;6709;117681;-72
2023/09/01 06:49:41;;;;;;;1.63;1.50;;;19.50;63.10;;;;;;20672;6707;276625;-72
2023/09/01 06:52:18;;;;;;;1.87;1.43;;;19.70;63.90;;;;;;20712;6705;310316;-72
2023/09/01 06:54:54;;;;;;;2.37;1.20;;;20.00;63.20;;;;;;20908;6705;118863;-73
2023/09/01 06:57:30;;;;;;;1.70;1.60;;;20.00;63.00;;;;;;20709;6705;304766;-72
2023/09/01 07:00:09;;;;;;;1.80;1.70;;;20.20;63.60;;;;;;20726;6705;280634;-77
2023/09/01 07:02:42;;;;;;;1.50;1.40;;;20.50;63.40;;;;;;20943;6707;116808;-70
2023/09/01 07:05:18;;;;;;;2.10;1.43;;;20.30;63.20;;;;;;20896;6707;117156;-82
2023/09/01 07:07:54;;;;;;;2.03;1.73;;;20.30;63.20;;;;;;20943;6712;117617;-73
2023/09/01 07:10:31;;;;;;;2.37;1.80;;;20.20;63.70;;;;;;20693;6727;304266;-75
2023/09/01 07:13:09;;;;;;;3.17;1.40;;;20.40;64.00;;;;;;20939;6716;118732;-73
2023/09/01 07:15:51;;;;;;;2.80;1.90;;;20.50;63.80;;;;;;20583;6734;312003;-74
2023/09/01 07:18:30;;;;;;;3.83;1.60;;;20.80;63.90;;;;;;20940;6706;116884;-70
2023/09/01 07:21:02;;;;;;;2.50;1.80;;;20.80;63.50;;;;;;20686;6715;277399;-73
2023/09/01 07:23:38;;;;;;;2.08;1.80;;;21.00;63.60;;;;;;20646;6730;305700;-70
2023/09/01 07:26:14;;;;;;;2.07;1.90;;;21.30;63.20;;;;;;20524;6726;279123;-71
2023/09/01 07:28:49;;;;;;;3.57;1.80;;;21.60;62.40;;;;;;20877;6717;117237;-75
2023/09/01 07:31:25;;;;;;;2.67;1.50;;;21.60;62.50;;;;;;20579;6714;287569;-70
2023/09/01 07:34:02;;;;;;;3.10;1.50;;;21.70;61.90;;;;;;20694;6696;333765;-76
2023/09/01 07:36:37;;;;;;;2.30;1.17;;;21.90;61.10;;;;;;20745;6718;123207;-75
2023/09/01 07:39:13;;;;;;;1.37;1.27;;;21.90;61.50;;;;;;20856;6718;119002;-80
2023/09/01 07:41:49;;;;;;;2.97;1.20;;;21.60;62.80;;;;;;20951;6702;117199;-75
2023/09/01 07:44:25;;;;;;;2.33;1.40;;;21.60;62.80;;;;;;20755;6704;282764;-76
2023/09/01 07:47:03;;;;;;;1.90;1.60;;;21.90;63.00;;;;;;20657;6720;305524;-78
2023/09/01 07:49:39;;;;;;;2.67;1.50;;;22.40;61.60;;;;;;20699;6733;308907;-72
2023/09/01 07:52:13;;;;;;;2.47;1.47;;;22.80;60.90;;;;;;20704;6717;309373;-76
2023/09/01 07:54:51;;;;;;;1.40;1.30;;;23.10;59.00;;;;;;20926;6729;116876;-72
2023/09/01 07:57:27;;;;;;;1.50;1.40;;;22.90;59.10;;;;;;20647;6746;306519;-72
2023/09/01 08:00:07;;;;;;;1.03;0.93;;;22.90;58.90;;;;;;20826;6746;118237;-78
2023/09/01 08:02:39;;;;;;;2.73;0.97;;;22.70;59.20;;;;;;20833;6745;119000;-76
2023/09/01 08:05:17;;;;;;;1.93;1.10;;;22.40;59.70;;;;;;20774;6743;117734;-79
2023/09/01 08:07:53;;;;;;;2.05;1.52;;;22.10;60.30;;;;;;20579;6729;343832;-73
2023/09/01 08:10:28;;;;;;;1.73;1.33;;;22.20;60.50;;;;;;20754;6739;125519;-73
2023/09/01 08:13:05;;;;;;;1.60;1.50;;;22.20;60.80;;;;;;20610;6756;276414;-75
2023/09/01 08:15:41;;;;;;;1.23;1.00;;;22.30;60.60;;;;;;20805;6738;120628;-73
2023/09/01 08:18:19;;;;;;;1.80;1.23;;;22.30;60.60;;;;;;20885;6729;120114;-74
2023/09/01 08:20:53;;;;;;;1.73;1.60;;;22.30;61.60;;;;;;20636;6729;305646;-74
2023/09/01 08:23:28;;;;;;;2.95;1.50;;;22.20;61.50;;;;;;20414;6785;306698;-73
2023/09/01 08:26:04;;;;;;;1.20;1.10;;;22.60;61.00;;;;;;20788;6729;117488;-73
2023/09/01 08:28:42;;;;;;;4.90;1.57;;;22.60;61.10;;;;;;20901;6721;118755;-69
2023/09/01 08:31:15;;;;;;;1.70;1.40;;;22.50;61.60;;;;;;20897;6721;117189;-70
2023/09/01 08:33:52;;;;;;;2.47;1.50;;;22.40;62.20;;;;;;20840;6736;117389;-70
2023/09/01 08:36:29;;;;;;;1.13;1.10;;;22.50;63.00;;;;;;20447;6741;279584;-70
2023/09/01 08:39:03;;;;;;;2.10;1.30;;;23.10;60.80;;;;;;20746;6772;116991;-73
2023/09/01 08:41:40;;;;;;;1.23;1.17;;;23.00;60.70;;;;;;20773;6743;117129;-74
2023/09/01 08:44:16;;;;;;;2.47;1.48;;;23.00;60.40;;;;;;20661;6734;305950;-71
2023/09/01 08:46:51;;;;;;;1.40;1.30;;;23.10;59.40;;;;;;20717;6734;119322;-69
2023/09/01 08:49:27;;;;;;;1.30;1.20;;;23.10;59.60;;;;;;20887;6717;118316;-72
2023/09/01 08:52:03;;;;;;;1.70;1.57;;;22.90;60.10;;;;;;20616;6736;305544;-71
2023/09/01 08:54:38;;;;;;;1.63;1.53;;;23.00;60.80;;;;;;20616;6736;319626;-70
2023/09/01 08:57:14;;;;;;;2.10;1.40;;;23.40;61.10;;;;;;20472;6792;280946;-71
2023/09/01 08:59:49;;;;;;;1.60;1.50;;;23.70;60.00;;;;;;20685;6716;429583;-73
2023/09/01 09:02:26;;;;;;;2.67;1.87;;;24.20;59.40;;;;;;20529;6719;306936;-72
2023/09/01 09:05:06;;;;;;;1.60;1.30;;;24.10;59.30;;;;;;20697;6699;308612;-71
2023/09/01 09:07:41;;;;;;;2.70;1.30;;;24.50;57.00;;;;;;20598;6711;336753;-71
2023/09/01 09:10:17;;;;;;;2.70;1.50;;;24.40;57.30;;;;;;20622;6741;276068;-72
2023/09/01 09:12:52;;;;;;;1.77;1.67;;;24.60;57.30;;;;;;20658;6730;307036;-71
2023/09/01 09:15:32;;;;;;;1.73;0.97;;;24.60;56.80;;;;;;20832;6715;117136;-72
2023/09/01 09:18:04;;;;;;;2.90;1.30;;;24.50;57.30;;;;;;20690;6715;309393;-71
2023/09/01 09:20:39;;;;;;;1.13;1.07;;;24.50;57.00;;;;;;20881;6714;116783;-71
2023/09/01 09:23:16;;;;;;;2.50;1.40;;;24.40;57.80;;;;;;20890;6714;117318;-72
2023/09/01 09:25:51;;;;;;;1.57;1.30;;;24.30;57.60;;;;;;20740;6724;117200;-71
2023/09/01 09:28:27;;;;;;;2.33;1.43;;;24.30;58.30;;;;;;20558;6734;280176;-72
2023/09/01 09:31:02;;;;;;;2.93;1.17;;;24.60;56.40;;;;;;20851;6730;117034;-70
2023/09/01 09:33:40;;;;;;;1.10;1.10;;;24.80;56.90;;;;;;20852;6715;118500;-72
2023/09/01 09:36:16;;;;;;;4.67;1.33;;;24.80;57.00;;;;;;20780;6714;121224;-69
2023/09/01 09:38:50;;;;;;;3.47;1.37;;;24.80;57.50;;;;;;20922;6729;119401;-71
2023/09/01 09:41:25;;;;;;;1.30;1.20;;;24.80;57.80;;;;;;20667;6709;306108;-75
2023/09/01 09:44:00;;;;;;;2.03;1.20;;;25.00;55.20;;;;;;20986;6709;116579;-71
2023/09/01 09:46:44;;;;;;;2.70;1.50;;;25.00;55.40;;;;;;20619;6709;306936;-71
2023/09/01 09:49:16;;;;;;;1.00;1.00;;;25.30;55.60;;;;;;20953;6727;116582;-71
2023/09/01 09:51:54;;;;;;;1.50;1.40;;;25.20;55.50;;;;;;20678;6727;308745;-72
2023/09/01 09:54:30;;;;;;;3.05;1.42;;;25.30;54.10;;;;;;20720;6726;311920;-77
2023/09/01 09:57:07;;;;;;;1.70;1.60;;;25.80;52.70;;;;;;20678;6703;275658;-73
2023/09/01 09:59:45;;;;;;;1.53;1.30;;;25.70;52.50;;;;;;20860;6711;119716;-73
2023/09/01 10:02:21;;;;;;;3.70;1.50;;;25.60;53.30;;;;;;20729;6711;276169;-73
2023/09/01 10:04:58;;;;;;;5.20;1.65;;;25.70;52.60;;;;;;20419;6768;276001;-72
2023/09/01 10:07:33;;;;;;;3.33;1.40;;;25.80;52.70;;;;;;20721;6711;304756;-73
2023/09/01 10:10:09;;;;;;;1.73;1.10;;;26.00;52.50;;;;;;20825;6726;118211;-75
2023/09/01 10:12:46;;;;;;;1.50;1.40;;;25.80;53.00;;;;;;20905;6718;117381;-72
2023/09/01 10:15:22;;;;;;;1.53;1.43;;;25.50;53.50;;;;;;20702;6718;326938;-72
2023/09/01 10:17:58;;;;;;;2.77;1.43;;;25.50;52.50;;;;;;21007;6696;117681;-72
2023/09/01 10:20:36;;;;;;;1.50;1.40;;;25.40;53.00;;;;;;20759;6707;304240;-73
2023/09/01 10:23:12;;;;;;;1.30;1.20;;;25.40;53.30;;;;;;20962;6707;119682;-71
2023/09/01 10:26:28;;;;;;;1.87;1.30;;;25.40;53.70;;;;;;20605;6712;308467;-72
2023/09/01 10:29:03;;;;;;;2.80;1.60;;;25.60;54.20;;;;;;20800;6696;304155;-72
2023/09/01 10:31:38;;;;;;;1.37;1.30;;;25.90;53.00;;;;;;20959;6697;120774;-72
2023/09/01 10:34:13;;;;;;;1.60;1.40;;;26.00;53.50;;;;;;20639;6707;315044;-75
2023/09/01 10:36:50;;;;;;;2.42;1.42;;;26.20;53.10;;;;;;20612;6707;301706;-73
2023/09/01 10:39:26;;;;;;;1.53;1.40;;;26.50;50.90;;;;;;20700;6764;275993;-76
2023/09/01 10:42:07;;;;;;;3.90;1.45;;;26.70;50.40;;;;;;20535;6722;336128;-77
2023/09/01 10:44:40;;;;;;;1.23;1.10;;;26.90;50.50;;;;;;20972;6702;116839;-72
2023/09/01 10:47:32;;;;;;;1.17;1.10;;;26.70;51.00;;;;;;20679;6768;118392;-76
2023/09/01 10:50:08;;;;;;;1.90;1.40;;;26.40;51.40;;;;;;20732;6737;118185;-75
2023/09/01 10:52:46;;;;;;;1.77;1.67;;;26.10;52.10;;;;;;20471;6724;322369;-74
2023/09/01 10:55:19;;;;;;;2.23;1.13;;;26.30;52.20;;;;;;20870;6706;120654;-73
2023/09/01 10:57:54;;;;;;;1.60;1.50;;;26.20;52.60;;;;;;20862;6720;121756;-73
2023/09/01 11:00:33;;;;;;;1.33;1.20;;;26.00;52.50;;;;;;21022;6679;117003;-72
2023/09/01 11:03:30;;;;;;;1.50;1.40;;;25.80;52.70;;;;;;20838;6679;274192;-72
2023/09/01 11:06:06;;;;;;;1.20;1.10;;;25.90;52.00;;;;;;20971;6679;119364;-72
2023/09/01 11:08:41;;;;;;;1.40;1.30;;;25.90;52.20;;;;;;20813;6693;275519;-72
2023/09/01 11:11:17;;;;;;;1.10;1.10;;;26.10;51.20;;;;;;21018;6693;117214;-73
2023/09/01 11:14:00;;;;;;;2.60;1.40;;;26.50;51.30;;;;;;20746;6693;276045;-73
2023/09/01 11:16:35;;;;;;;1.63;1.40;;;26.40;51.20;;;;;;20830;6693;118650;-73
2023/09/01 11:19:12;;;;;;;3.10;1.43;;;26.60;50.00;;;;;;20711;6693;304895;-77
2023/09/01 11:21:50;;;;;;;1.33;1.23;;;26.60;49.90;;;;;;20783;6693;277375;-73
2023/09/01 11:24:24;;;;;;;2.00;1.40;;;27.00;50.00;;;;;;20805;6693;274677;-73
2023/09/01 11:27:00;;;;;;;1.80;1.40;;;27.40;49.20;;;;;;20602;6693;306953;-78
2023/09/01 11:29:36;;;;;;;1.42;1.23;;;27.70;48.80;;;;;;20718;6693;275583;-74
2023/09/01 11:32:11;;;;;;;1.48;1.37;;;28.00;48.30;;;;;;20650;6693;356854;-75
2023/09/01 11:34:49;;;;;;;3.63;1.50;;;28.30;48.60;;;;;;20955;6769;119897;-73
2023/09/01 11:37:35;;;;;;;2.73;1.47;;;28.30;48.40;;;;;;20903;6731;121054;-72
2023/09/01 11:40:14;;;;;;;1.40;1.30;;;28.10;48.10;;;;;;20462;6732;275943;-75
2023/09/01 11:42:57;;;;;;;1.30;1.20;;;28.20;46.30;;;;;;20877;6733;117478;-73
2023/09/01 11:45:47;;;;;;;2.03;1.20;;;28.10;47.00;;;;;;20594;6733;307756;-71
2023/09/01 11:48:23;;;;;;;1.27;1.17;;;28.10;45.40;;;;;;20589;6783;307036;-71
2023/09/01 11:50:58;;;;;;;3.80;1.20;;;28.20;46.20;;;;;;20890;6732;121827;-73
2023/09/01 11:53:33;;;;;;;1.23;1.20;;;28.10;46.40;;;;;;20600;6757;278788;-73
2023/09/01 11:56:17;;;;;;;1.60;1.50;;;28.20;45.00;;;;;;20536;6749;306440;-74
2023/09/01 11:58:52;;;;;;;0.87;0.87;;;28.20;45.00;;;;;;20914;6724;116726;-71
2023/09/01 12:01:27;;;;;;;2.27;0.90;;;28.00;45.40;;;;;;20792;6726;118377;-71
2023/09/01 12:04:03;;;;;;;1.00;1.00;;;27.60;45.60;;;;;;20665;6733;280380;-71
2023/09/01 12:06:46;;;;;;;0.85;0.85;;;27.50;44.60;;;;;;20613;6726;304381;-73
2023/09/01 12:09:20;;;;;;;1.10;1.00;;;27.70;45.50;;;;;;20688;6730;305284;-71
2023/09/01 12:11:56;;;;;;;2.93;0.83;;;27.90;45.80;;;;;;20819;6744;119173;-72
2023/09/01 12:14:32;;;;;;;3.10;1.03;;;27.80;45.80;;;;;;20882;6736;119936;-69
2023/09/01 12:17:21;;;;;;;2.60;1.10;;;27.40;46.40;;;;;;20576;6750;305550;-73
2023/09/01 12:19:56;;;;;;;1.80;1.00;;;27.40;45.10;;;;;;20806;6732;119396;-72
2023/09/01 12:22:32;;;;;;;1.27;1.10;;;27.20;44.20;;;;;;20670;6735;277049;-72
2023/09/01 12:25:08;;;;;;;1.23;0.77;;;27.20;44.20;;;;;;20901;6717;116478;-69
2023/09/01 12:27:44;;;;;;;1.47;1.23;;;26.90;46.10;;;;;;20875;6732;118757;-71
2023/09/01 12:30:19;;;;;;;1.17;1.00;;;26.90;46.00;;;;;;20891;6733;116788;-73
2023/09/01 12:32:55;;;;;;;1.20;1.03;;;26.70;46.60;;;;;;20875;6751;115882;-71
2023/09/01 12:35:31;;;;;;;1.47;1.00;;;26.80;46.00;;;;;;20583;6751;300936;-73
2023/09/01 12:38:07;;;;;;;1.63;1.00;;;26.80;46.00;;;;;;20829;6751;117489;-74
2023/09/01 12:40:46;;;;;;;2.67;1.10;;;26.90;45.80;;;;;;20580;6736;282976;-72
2023/09/01 12:43:18;;;;;;;2.03;1.00;;;27.00;45.60;;;;;;20665;6741;305419;-72
2023/09/01 12:45:54;;;;;;;0.90;0.90;;;27.40;44.30;;;;;;20792;6728;116772;-74
2023/09/01 12:48:32;;;;;;;0.90;0.90;;;27.20;44.70;;;;;;20905;6728;115912;-71
2023/09/01 12:51:06;;;;;;;0.90;0.90;;;26.60;45.50;;;;;;20707;6760;123513;-69
2023/09/01 12:53:45;;;;;;;1.00;1.00;;;26.50;45.40;;;;;;20577;6730;313651;-76
2023/09/01 12:56:23;;;;;;;1.53;1.00;;;26.60;44.30;;;;;;20541;6733;278784;-71
2023/09/01 12:58:56;;;;;;;1.47;0.83;;;26.90;44.30;;;;;;20884;6733;117351;-72
2023/09/01 13:01:32;;;;;;;1.20;1.10;;;27.10;45.10;;;;;;20496;6733;309141;-74
2023/09/01 13:04:08;;;;;;;0.90;0.90;;;27.10;45.60;;;;;;20951;6715;116986;-70
2023/09/01 13:06:43;;;;;;;1.30;1.00;;;27.10;45.20;;;;;;20510;6730;312094;-71
2023/09/01 13:09:20;;;;;;;1.20;1.10;;;27.30;43.80;;;;;;20897;6730;116927;-72
2023/09/01 13:11:58;;;;;;;1.03;0.90;;;27.30;44.60;;;;;;20883;6730;119755;-72